createdAt,value
2019-03-23T07:48:21.735Z,101389.11
2019-03-23T07:53:26.673Z,101387.66
2019-03-23T07:58:31.721Z,101395.36
2019-03-23T08:03:36.936Z,101391.87
2019-03-23T08:08:41.761Z,101401.16
2019-03-23T08:13:46.591Z,101406.77
2019-03-23T08:18:51.311Z,101409.09
2019-03-23T08:23:56.361Z,101410.84
2019-03-23T08:29:03.213Z,101416.59
2019-03-23T08:34:07.991Z,101422.31
2019-03-23T08:39:12.760Z,101424.41
2019-03-23T08:44:17.736Z,101425.98
2019-03-23T08:49:22.580Z,101427.69
2019-03-23T08:54:27.410Z,101418.10
2019-03-23T08:59:32.562Z,101424.38
2019-03-23T09:04:37.666Z,101430.41
2019-03-23T09:09:42.917Z,101435.18
2019-03-23T09:14:47.806Z,101432.56
2019-03-23T09:19:52.762Z,101433.60
2019-03-23T09:24:57.448Z,101452.61
2019-03-23T09:30:02.216Z,101469.62
2019-03-23T09:35:07.605Z,101469.20
2019-03-23T09:40:12.501Z,101468.77
2019-03-23T09:45:17.339Z,101475.61
2019-03-23T09:50:22.126Z,101473.14
2019-03-23T09:55:28.640Z,101459.88
2019-03-23T10:00:34.484Z,101473.63
2019-03-23T10:05:39.316Z,101463.98
2019-03-23T10:10:44.186Z,101455.14
2019-03-23T10:15:48.908Z,101454.41
2019-03-23T10:20:53.821Z,101449.55
2019-03-23T10:25:58.653Z,101432.39
2019-03-23T10:31:03.953Z,101432.39
2019-03-23T10:36:09.107Z,101424.89
2019-03-23T10:41:13.956Z,101425.26
2019-03-23T10:46:18.958Z,101419.14
2019-03-23T10:51:23.754Z,101420.27
2019-03-23T10:56:28.685Z,101417.55
2019-03-23T11:01:34.655Z,101431.71
2019-03-23T11:06:39.916Z,101420.27
2019-03-23T11:11:44.992Z,101424.81
2019-03-23T11:16:51.126Z,101424.67
2019-03-23T11:21:55.839Z,101429.00
2019-03-23T11:27:00.609Z,101432.47
2019-03-23T11:32:05.462Z,101436.80
2019-03-23T11:37:10.420Z,101441.56
2019-03-23T11:42:15.606Z,101439.23
2019-03-23T11:47:20.517Z,101447.10
2019-03-23T11:52:25.611Z,101458.79
2019-03-23T11:57:30.715Z,101403.39
2019-03-23T12:02:36.451Z,101452.55
2019-03-23T12:07:44.086Z,101442.67
2019-03-23T12:12:48.981Z,101445.44
2019-03-23T12:17:53.804Z,101441.48
2019-03-23T12:22:58.641Z,101433.56
2019-03-23T12:28:03.534Z,101431.36
2019-03-23T12:33:08.926Z,101432.97
2019-03-23T12:38:14.505Z,101444.44
2019-03-23T12:43:19.665Z,101442.17
2019-03-23T12:48:24.486Z,101430.77
2019-03-23T12:53:29.381Z,101431.83
2019-03-23T12:58:34.422Z,101426.27
2019-03-23T13:03:39.301Z,101427.64
2019-03-23T13:08:44.282Z,101420.61
2019-03-23T13:13:49.017Z,101410.16
2019-03-23T13:18:53.977Z,101400.95
2019-03-23T13:23:58.957Z,101399.53
2019-03-23T13:29:03.809Z,101394.78
2019-03-23T13:34:09.111Z,101408.67
2019-03-23T13:39:13.850Z,101405.24
2019-03-23T13:44:23.095Z,101395.91
2019-03-23T13:49:27.762Z,101402.28
2019-03-23T13:54:32.574Z,101399.97
2019-03-23T13:59:37.427Z,101394.44
2019-03-23T14:04:42.833Z,101388.88
2019-03-23T14:09:47.996Z,101387.16
2019-03-23T14:14:52.860Z,101380.52
2019-03-23T14:19:57.621Z,101382.59
2019-03-23T14:25:02.704Z,101373.70
2019-03-23T14:30:08.055Z,101375.94
2019-03-23T14:35:12.881Z,101381.50
2019-03-23T14:40:17.609Z,101385.34
2019-03-23T14:45:22.586Z,101384.27
2019-03-23T14:50:28.005Z,101377.11
2019-03-23T14:55:33.129Z,101381.61
2019-03-23T15:00:38.028Z,101383.73
2019-03-23T15:05:42.866Z,101382.46
2019-03-23T15:10:47.586Z,101381.02
2019-03-23T15:15:52.550Z,101375.35
2019-03-23T15:20:57.505Z,101381.77
2019-03-23T15:26:03.368Z,101377.78
2019-03-23T15:31:08.561Z,101378.30
2019-03-23T15:36:13.291Z,101376.63
2019-03-23T15:41:17.842Z,101383.26
2019-03-23T15:46:22.375Z,101377.88
2019-03-23T15:51:27.046Z,101373.29
2019-03-23T15:56:32.696Z,101372.94
2019-03-23T16:01:37.592Z,101377.95
2019-03-23T16:06:45.351Z,101378.37
2019-03-23T16:11:50.165Z,101374.86
2019-03-23T16:16:56.365Z,101378.30
2019-03-23T16:22:01.161Z,101380.74
2019-03-23T16:27:05.946Z,101385.79
2019-03-23T16:32:11.229Z,101383.71
2019-03-23T16:37:16.468Z,101384.89
2019-03-23T16:42:21.378Z,101385.13
2019-03-23T16:47:26.146Z,101377.16
2019-03-23T16:52:31.018Z,101381.66
2019-03-23T16:57:35.827Z,101376.51
2019-03-23T17:02:40.741Z,101385.09
2019-03-23T17:07:45.583Z,101389.44
2019-03-23T17:12:55.320Z,101388.41
2019-03-23T17:17:57.021Z,101388.80
2019-03-23T17:23:02.129Z,101395.70
2019-03-23T17:28:06.810Z,101393.08
2019-03-23T17:33:11.598Z,101392.17
2019-03-23T17:38:16.289Z,101394.02
2019-03-23T17:43:23.565Z,101394.31
2019-03-23T17:48:28.356Z,101393.50
2019-03-23T17:53:33.096Z,101390.94
2019-03-23T17:58:38.133Z,101391.15
2019-03-23T18:03:43.076Z,101388.11
2019-03-23T18:08:48.016Z,101390.80
2019-03-23T18:13:53.353Z,101385.45
2019-03-23T18:18:58.336Z,101392.41
2019-03-23T18:24:02.958Z,101398.59
2019-03-23T18:29:08.036Z,101398.30
2019-03-23T18:34:13.333Z,101399.62
2019-03-23T18:39:18.536Z,101398.87
2019-03-23T18:44:23.535Z,101400.58
2019-03-23T18:49:28.435Z,101401.45
2019-03-23T18:54:33.796Z,101406.24
2019-03-23T18:59:38.937Z,101401.37
2019-03-23T19:04:43.857Z,101405.80
2019-03-23T19:09:49.650Z,101412.36
2019-03-23T19:14:54.496Z,101415.31
2019-03-23T19:19:59.436Z,101414.47
2019-03-23T19:25:14.801Z,101420.68
2019-03-23T19:30:12.818Z,101417.13
2019-03-23T19:35:17.555Z,101417.97
2019-03-23T19:40:22.616Z,101421.91
2019-03-23T19:45:27.605Z,101425.69
2019-03-23T19:50:32.716Z,101426.05
2019-03-23T19:55:37.618Z,101430.02
2019-03-23T20:00:42.556Z,101435.72
2019-03-23T20:05:47.555Z,101441.95
2019-03-23T20:10:53.855Z,101447.26
2019-03-23T20:15:58.796Z,101447.65
2019-03-23T20:21:03.665Z,101448.97
2019-03-23T20:26:08.676Z,101459.58
2019-03-23T20:31:15.373Z,101458.77
2019-03-23T20:36:20.198Z,101459.22
2019-03-23T20:41:24.985Z,101462.50
2019-03-23T20:46:29.925Z,101466.84
2019-03-23T20:51:35.093Z,101457.56
2019-03-23T20:56:40.216Z,101454.55
2019-03-23T21:01:45.392Z,101453.73
2019-03-23T21:06:50.296Z,101449.84
2019-03-23T21:11:57.036Z,101458.25
2019-03-23T21:17:03.404Z,101454.27
2019-03-23T21:22:08.355Z,101454.19
2019-03-23T21:27:13.455Z,101446.08
2019-03-23T21:32:18.216Z,101447.44
2019-03-23T21:37:23.116Z,101442.25
2019-03-23T21:42:27.796Z,101443.87
2019-03-23T21:47:32.837Z,101445.51
2019-03-23T21:52:37.855Z,101442.86
2019-03-23T21:57:43.059Z,101449.78
2019-03-23T22:02:48.236Z,101450.21
2019-03-23T22:07:53.180Z,101451.09
2019-03-23T22:12:59.273Z,101446.53
2019-03-23T22:18:04.257Z,101440.27
2019-03-23T22:23:11.377Z,101445.62
2019-03-23T22:28:16.585Z,101453.67
2019-03-23T22:33:21.676Z,101453.62
2019-03-23T22:38:26.916Z,101454.86
2019-03-23T22:43:31.857Z,101458.77
2019-03-23T22:48:38.282Z,101462.09
2019-03-23T22:53:42.981Z,101475.20
2019-03-23T22:58:47.738Z,101472.48
2019-03-23T23:03:52.937Z,101475.50
2019-03-23T23:08:57.797Z,101481.29
2019-03-23T23:14:02.875Z,101481.89
2019-03-23T23:19:10.177Z,101481.44
2019-03-23T23:24:15.215Z,101485.45
2019-03-23T23:29:20.376Z,101485.93
2019-03-23T23:34:25.636Z,101486.02
2019-03-23T23:39:30.629Z,101482.09
2019-03-23T23:44:36.937Z,101476.12
2019-03-23T23:49:42.066Z,101484.25
2019-03-23T23:54:46.856Z,101485.48
2019-03-23T23:59:51.657Z,101487.16
